createdAt,value
2019-04-23T00:01:23.871Z,50.58
2019-04-23T00:06:19.111Z,48.50
2019-04-23T00:11:25.573Z,50.47
2019-04-23T00:21:48.309Z,49.93
2019-04-23T00:27:03.808Z,50.67
2019-04-23T00:31:57.619Z,50.43
2019-04-23T00:37:06.508Z,50.00
2019-04-23T00:42:10.326Z,49.67
2019-04-23T00:47:17.950Z,49.93
2019-04-23T00:52:20.687Z,50.20
2019-04-23T00:57:25.800Z,48.63
2019-04-23T01:02:32.987Z,49.30
2019-04-23T01:07:31.866Z,49.33
2019-04-23T01:12:51.434Z,50.47
2019-04-23T01:17:50.612Z,48.93
2019-04-23T01:22:31.576Z,48.87
2019-04-23T01:28:03.956Z,47.40
2019-04-23T01:33:13.831Z,47.67
2019-04-23T01:38:11.939Z,48.73
2019-04-23T01:43:16.307Z,49.17
2019-04-23T01:48:17.849Z,48.83
2019-04-23T01:53:45.674Z,49.30
2019-04-23T02:03:43.713Z,48.03
2019-04-23T02:08:48.619Z,48.20
2019-04-23T02:14:00.220Z,48.40
2019-04-23T02:18:56.811Z,47.40
2019-04-23T02:24:03.633Z,47.80
2019-04-23T02:29:28.618Z,47.73
2019-04-23T02:34:50.144Z,48.90
2019-04-23T02:39:40.151Z,47.50
2019-04-23T02:44:34.938Z,47.38
2019-04-23T02:54:50.877Z,47.43
2019-04-23T03:04:58.101Z,47.03
2019-04-23T03:15:21.869Z,47.60
2019-04-23T03:20:22.300Z,48.65
2019-04-23T03:25:35.682Z,49.00
2019-04-23T03:46:16.289Z,49.47
2019-04-23T03:51:16.337Z,47.77
2019-04-23T03:56:44.783Z,48.20
2019-04-23T04:06:45.609Z,48.80
2019-04-23T04:11:27.237Z,47.85
2019-04-23T04:21:52.028Z,48.10
2019-04-23T04:26:57.925Z,47.30
2019-04-23T04:42:14.750Z,49.80
2019-04-23T04:52:33.855Z,47.83
2019-04-23T05:02:37.774Z,47.07
2019-04-23T05:07:42.181Z,48.37
2019-04-23T05:12:38.655Z,48.23
2019-04-23T05:18:09.957Z,48.87
2019-04-23T05:23:18.017Z,49.75
2019-04-23T05:28:14.163Z,50.13
2019-04-23T05:33:18.951Z,48.93
2019-04-23T05:43:30.786Z,51.83
2019-04-23T05:48:34.797Z,51.20
2019-04-23T05:53:39.772Z,50.57
2019-04-23T05:58:46.870Z,51.23
2019-04-23T06:03:58.201Z,51.80
2019-04-23T06:08:53.282Z,51.90
2019-04-23T06:19:09.614Z,51.97
2019-04-23T06:24:16.271Z,51.50
2019-04-23T06:29:20.981Z,51.20
2019-04-23T06:34:21.964Z,51.30
2019-04-23T06:39:28.589Z,53.80
2019-04-23T06:44:30.789Z,51.28
2019-04-23T06:54:52.921Z,50.70
2019-04-23T07:05:08.578Z,52.23
2019-04-23T07:09:58.336Z,51.80
2019-04-23T07:15:13.374Z,53.13
2019-04-23T07:20:06.903Z,52.97
2019-04-23T07:25:14.052Z,51.63
2019-04-23T07:35:25.735Z,52.70
2019-04-23T08:05:43.970Z,64.35
2019-04-23T08:11:23.418Z,53.05
2019-04-23T08:16:19.607Z,52.93
2019-04-23T08:21:14.832Z,54.15
2019-04-23T08:26:34.365Z,53.33
2019-04-23T08:31:40.274Z,52.10
2019-04-23T08:36:42.587Z,53.25
2019-04-23T08:42:00.236Z,53.65
2019-04-23T08:47:05.363Z,52.85
2019-04-23T08:52:10.062Z,54.83
2019-04-23T09:02:31.268Z,53.73
2019-04-23T09:07:17.875Z,52.60
2019-04-23T09:12:23.916Z,51.88
2019-04-23T09:17:27.386Z,54.13
2019-04-23T09:27:34.110Z,54.73
2019-04-23T09:32:35.965Z,55.12
2019-04-23T09:43:12.110Z,54.48
2019-04-23T09:53:25.001Z,53.55
2019-04-23T09:58:22.321Z,54.10
2019-04-23T10:03:20.994Z,54.00
2019-04-23T10:08:18.710Z,53.87
2019-04-23T10:13:15.918Z,54.85
2019-04-23T10:18:20.179Z,54.50
2019-04-23T10:23:25.135Z,54.42
2019-04-23T10:28:42.193Z,53.83
2019-04-23T10:33:46.287Z,54.77
2019-04-23T10:38:59.539Z,54.45
2019-04-23T10:43:58.585Z,55.12
2019-04-23T10:49:54.838Z,55.05
2019-04-23T10:54:57.648Z,55.17
2019-04-23T11:00:13.783Z,56.10
2019-04-23T11:05:11.799Z,55.10
2019-04-23T11:10:23.542Z,55.40
2019-04-23T11:20:29.994Z,55.70
2019-04-23T11:25:31.615Z,56.48
2019-04-23T11:35:52.965Z,56.80
2019-04-23T11:40:45.803Z,55.34
2019-04-23T11:45:53.972Z,56.27
2019-04-23T12:01:37.449Z,57.53
2019-04-23T12:06:32.838Z,55.65
2019-04-23T12:27:16.728Z,56.58
2019-04-23T12:48:09.571Z,57.88
2019-04-23T12:53:10.283Z,57.33
2019-04-23T12:58:15.765Z,57.83
2019-04-23T13:03:17.112Z,56.98
2019-04-23T13:13:28.523Z,57.17
2019-04-23T13:29:04.904Z,58.67
2019-04-23T13:43:52.602Z,59.15
2019-04-23T13:49:01.711Z,56.37
2019-04-23T13:54:16.865Z,72.95
2019-04-23T14:04:45.126Z,64.75
2019-04-23T14:14:56.317Z,58.95
2019-04-23T14:20:04.994Z,58.28
2019-04-23T14:30:13.242Z,57.38
2019-04-23T14:35:18.511Z,57.95
2019-04-23T14:45:39.153Z,57.60
2019-04-23T14:55:56.890Z,57.45
2019-04-23T15:01:15.591Z,57.58
2019-04-23T15:06:12.572Z,57.53
2019-04-23T15:11:24.379Z,57.43
2019-04-23T15:31:32.934Z,55.50
2019-04-23T15:37:11.273Z,56.63
2019-04-23T15:41:49.017Z,54.60
2019-04-23T15:46:47.127Z,53.65
2019-04-23T15:51:56.855Z,54.53
2019-04-23T16:01:43.096Z,52.73
2019-04-23T16:06:43.606Z,51.65
2019-04-23T16:12:14.957Z,55.47
2019-04-23T16:17:20.937Z,55.00
2019-04-23T16:22:28.476Z,52.83
2019-04-23T16:32:59.237Z,54.53
2019-04-23T16:38:07.717Z,53.67
2019-04-23T16:43:07.083Z,53.67
2019-04-23T16:48:15.680Z,52.90
2019-04-23T16:53:15.749Z,53.63
2019-04-23T16:58:25.267Z,53.43
2019-04-23T17:03:28.970Z,52.13
2019-04-23T17:08:43.889Z,53.30
2019-04-23T17:13:34.432Z,50.80
2019-04-23T17:18:37.613Z,50.47
2019-04-23T17:28:47.579Z,50.17
2019-04-23T17:33:56.454Z,50.03
2019-04-23T17:44:18.323Z,47.80
2019-04-23T17:54:17.867Z,48.23
2019-04-23T17:59:28.333Z,48.47
2019-04-23T18:04:34.795Z,46.55
2019-04-23T18:09:37.263Z,47.97
2019-04-23T18:14:40.348Z,47.48
2019-04-23T18:19:54.540Z,46.70
2019-04-23T18:25:04.458Z,47.43
2019-04-23T18:30:16.073Z,47.33
2019-04-23T18:40:19.773Z,47.30
2019-04-23T18:45:41.673Z,47.07
2019-04-23T18:50:46.739Z,46.17
2019-04-23T18:55:58.910Z,46.33
2019-04-23T19:01:00.135Z,47.37
2019-04-23T19:06:14.773Z,46.30
2019-04-23T19:11:14.586Z,45.83
2019-04-23T19:16:25.374Z,46.10
2019-04-23T19:21:45.945Z,46.05
2019-04-23T19:36:59.738Z,46.07
2019-04-23T19:52:14.437Z,44.47
2019-04-23T20:02:45.219Z,45.40
2019-04-23T20:07:43.708Z,45.30
2019-04-23T20:12:40.841Z,44.83
2019-04-23T20:22:51.189Z,44.80
2019-04-23T20:28:01.980Z,44.77
2019-04-23T20:38:33.561Z,44.77
2019-04-23T20:43:32.693Z,45.10
2019-04-23T20:48:40.568Z,46.07
2019-04-23T20:53:40.370Z,47.13
2019-04-23T20:58:58.515Z,47.50
2019-04-23T21:03:55.249Z,46.10
2019-04-23T21:09:24.562Z,48.20
2019-04-23T21:14:22.359Z,48.17
2019-04-23T21:19:11.826Z,50.30
2019-04-23T21:24:14.506Z,51.20
2019-04-23T21:29:29.014Z,53.10
2019-04-23T21:34:35.403Z,50.38
2019-04-23T21:40:04.762Z,51.13
2019-04-23T21:50:53.234Z,51.20
2019-04-23T21:55:05.573Z,53.27
2019-04-23T22:00:08.376Z,51.13
2019-04-23T22:05:28.404Z,53.57
2019-04-23T22:10:25.683Z,53.77
2019-04-23T22:15:43.179Z,54.30
2019-04-23T22:20:47.666Z,51.77
2019-04-23T22:25:52.650Z,55.70
2019-04-23T22:31:01.332Z,53.98
2019-04-23T22:36:04.624Z,52.30
2019-04-23T22:46:16.134Z,56.47
2019-04-23T22:51:20.657Z,55.07
2019-04-23T22:56:17.093Z,51.97
2019-04-23T23:11:40.736Z,56.37
2019-04-23T23:16:39.501Z,54.60
2019-04-23T23:21:59.655Z,53.75
2019-04-23T23:26:55.556Z,55.23
2019-04-23T23:32:02.054Z,56.63
2019-04-23T23:37:09.097Z,56.03
2019-04-23T23:42:09.803Z,51.63
2019-04-23T23:52:21.567Z,57.03
